To NAV CANADA Home Page Login to a new session Search on AWWS site Feedback and Comments Disclaimer Vers la page française équivalente Tips FAQ What's new on the site To the Forecasts and Observations / NOTAM section To "File a Flight Plan" website Publications and other links Update of the User's profile FIC Telephone Numbers My Weather Data Folder Route Weather Data Regional Weather Data Local Weather Data To the Forecasts and Observations / NOTAM section
Request Generated 05/25/2017 at 01:09:56 UTC . Weather information available at that time is displayed.

METAR/TAF

HALIFAX/STANFIELD INTL/NS    (show WxCam)

METAR CYHZ 250100Z 25005KT 15SM BKN180 12/09 A2988 RMK AC7 SLP123=
METAR CYHZ 250000Z 22006KT 15SM FEW030 BKN160 BKN180 12/09 A2988 RMK
SC1AC5AC1 PRESRR SLP124=
METAR CYHZ 242300Z 17007KT 15SM FEW030 FEW150 BKN180 BKN240 14/09
A2984 RMK CU1AC1AC5CI1 CU TR SLP108 DENSITY ALT 500FT=

TAF CYHZ 242339Z 2500/2524 17007KT P6SM FEW030 BKN180
FM250200 16005KT P6SM FEW002 SCT030 PROB30 2502/2511 1SM BR
FM251200 03005KT P6SM FEW005
FM251500 04010KT P6SM SKC
BECMG 2516/2518 13011KT
FM252300 12010KT P6SM BKN015
RMK NXT FCST BY 250300Z=
Your time UTC time
Weather data provided by Environment Canada and NAV CANADA